Time,TemperatureF,DewpointF,PressureIn,WindDirection,WindDirectionDegrees,WindSpeedMPH,WindSpeedGustMPH,Humidity,HourlyPrecipIn,Conditions,Clouds,dailyrainin,SolarRadiationWatts/m^2,SoftwareType,DateUTC
2013-06-12 00:04:00,55.4,51.6,29.88,NNW,338,3.5,3.5,87,0.00,CLR,,0.00,0.0,WeatherDisplay:10.37,2013-06-11 22:04:00,
2013-06-12 00:09:00,55.4,51.6,29.88,NNW,338,3.5,3.5,87,0.00,CLR,,0.00,0.0,WeatherDisplay:10.37,2013-06-11 22:09:00,
2013-06-12 00:14:00,55.4,51.6,29.88,West,270,4.6,4.6,87,0.00,CLR,,0.00,0.0,WeatherDisplay:10.37,2013-06-11 22:14:00,
2013-06-12 00:19:00,55.4,51.3,29.88,WNW,292,4.6,4.6,86,0.00,CLR,,0.00,0.0,WeatherDisplay:10.37,2013-06-11 22:19:00,
2013-06-12 00:24:00,55.4,51.6,29.88,WNW,292,4.6,4.6,87,0.00,CLR,,0.00,0.0,WeatherDisplay:10.37,2013-06-11 22:24:00,
2013-06-12 00:29:00,55.2,51.4,29.88,NW,315,4.7,4.9,87,0.00,CLR,,0.00,0.0,WeatherDisplay:10.37,2013-06-11 22:29:00,
2013-06-12 00:34:00,55.2,51.4,29.88,WNW,292,4.6,4.6,87,0.00,CLR,,0.00,0.0,WeatherDisplay:10.37,2013-06-11 22:34:00,
2013-06-12 00:39:00,55.2,51.4,29.88,WNW,292,5.4,5.4,87,0.00,CLR,,0.00,0.0,WeatherDisplay:10.37,2013-06-11 22:39:00,
2013-06-12 00:44:00,55.0,51.5,29.88,NNW,338,4.6,4.6,88,0.00,CLR,,0.00,0.0,WeatherDisplay:10.37,2013-06-11 22:44:00,
2013-06-12 00:49:00,55.0,51.2,29.91,WNW,292,4.6,4.6,87,0.00,CLR,,0.00,0.0,WeatherDisplay:10.37,2013-06-11 22:49:00,
2013-06-12 00:54:00,54.9,51.4,29.91,North,0,4.6,4.6,88,0.00,CLR,,0.00,0.0,WeatherDisplay:10.37,2013-06-11 22:54:00,
2013-06-12 00:59:00,54.9,51.4,29.91,NW,315,5.8,5.8,88,0.00,CLR,,0.00,0.0,WeatherDisplay:10.37,2013-06-11 22:59:00,
2013-06-12 01:04:00,54.7,51.2,29.88,WNW,292,4.6,4.6,88,0.00,CLR,,0.00,0.0,WeatherDisplay:10.37,2013-06-11 23:04:00,
2013-06-12 01:09:00,54.7,51.5,29.88,North,0,3.5,3.5,89,0.00,CLR,,0.00,0.0,WeatherDisplay:10.37,2013-06-11 23:09:00,
2013-06-12 01:14:00,54.5,51.0,29.88,NNW,338,3.5,3.5,88,0.00,CLR,,0.00,0.0,WeatherDisplay:10.37,2013-06-11 23:14:00,
2013-06-12 01:19:00,54.5,51.0,29.88,NNW,338,3.5,3.5,88,0.00,CLR,,0.00,0.0,WeatherDisplay:10.37,2013-06-11 23:19:00,
2013-06-12 01:24:00,54.3,51.1,29.88,NNW,338,2.3,2.3,89,0.00,CLR,,0.00,0.0,WeatherDisplay:10.37,2013-06-11 23:24:00,
2013-06-12 01:29:00,54.3,51.1,29.88,NW,315,2.3,2.3,89,0.00,CLR,,0.00,0.0,WeatherDisplay:10.37,2013-06-11 23:29:00,
2013-06-12 01:34:00,54.1,51.0,29.88,NNW,338,2.3,2.3,89,0.00,CLR,,0.00,0.0,WeatherDisplay:10.37,2013-06-11 23:34:00,
2013-06-12 01:39:00,54.1,51.0,29.88,NNW,338,1.2,1.2,89,0.00,CLR,,0.00,0.0,WeatherDisplay:10.37,2013-06-11 23:39:00,
2013-06-12 01:44:00,54.0,50.8,29.88,NNW,338,2.3,2.3,89,0.00,CLR,,0.00,0.0,WeatherDisplay:10.37,2013-06-11 23:44:00,
2013-06-12 01:49:00,54.0,51.1,29.88,North,0,4.6,4.6,90,0.00,CLR,,0.00,0.0,WeatherDisplay:10.37,2013-06-11 23:49:00,
2013-06-12 01:54:00,54.0,51.1,29.88,NE,45,5.8,5.8,90,0.00,CLR,,0.00,0.0,WeatherDisplay:10.37,2013-06-11 23:54:00,
2013-06-12 01:59:00,54.0,51.1,29.88,NNE,22,4.6,4.6,90,0.00,CLR,,0.00,0.0,WeatherDisplay:10.37,2013-06-11 23:59:00,
2013-06-12 02:04:00,54.1,51.3,29.88,NNE,22,3.5,3.5,90,0.00,CLR,,0.00,0.0,WeatherDisplay:10.37,2013-06-12 00:04:00,
2013-06-12 02:09:00,54.1,51.3,29.88,NNW,338,4.6,4.6,90,0.00,CLR,,0.00,0.0,WeatherDisplay:10.37,2013-06-12 00:09:00,
2013-06-12 02:14:00,54.3,51.4,29.88,NNW,338,4.6,4.6,90,0.00,CLR,,0.00,0.0,WeatherDisplay:10.37,2013-06-12 00:14:00,
2013-06-12 02:19:00,54.3,51.1,29.91,NE,45,4.6,4.6,89,0.00,CLR,,0.00,0.0,WeatherDisplay:10.37,2013-06-12 00:19:00,
2013-06-12 02:24:00,54.3,51.1,29.91,NNW,338,3.5,3.5,89,0.00,CLR,,0.00,0.0,WeatherDisplay:10.37,2013-06-12 00:24:00,
2013-06-12 02:29:00,54.3,51.1,29.91,North,0,3.5,3.5,89,0.00,CLR,,0.00,0.0,WeatherDisplay:10.37,2013-06-12 00:29:00,
2013-06-12 02:34:00,54.5,51.3,29.91,NW,315,4.6,4.6,89,0.00,CLR,,0.00,0.0,WeatherDisplay:10.37,2013-06-12 00:34:00,
2013-06-12 02:39:00,54.5,51.3,29.91,NNW,338,4.6,4.6,89,0.00,CLR,,0.00,0.0,WeatherDisplay:10.37,2013-06-12 00:39:00,
2013-06-12 02:44:00,54.7,51.5,29.91,SSW,202,5.8,5.8,89,0.00,CLR,,0.00,0.0,WeatherDisplay:10.37,2013-06-12 00:44:00,
2013-06-12 02:49:00,55.0,51.9,29.91,NNE,22,5.8,5.8,89,0.00,CLR,,0.00,0.0,WeatherDisplay:10.37,2013-06-12 00:49:00,
2013-06-12 02:54:00,55.2,51.7,29.91,WNW,292,8.1,8.1,88,0.00,CLR,,0.00,0.0,WeatherDisplay:10.37,2013-06-12 00:54:00,
2013-06-12 02:59:00,55.4,51.6,29.91,NNE,22,5.8,5.8,87,0.00,CLR,,0.00,0.0,WeatherDisplay:10.37,2013-06-12 00:59:00,
2013-06-12 03:04:00,55.4,51.6,29.91,NNE,22,4.6,4.6,87,0.00,CLR,,0.00,0.0,WeatherDisplay:10.37,2013-06-12 01:04:00,
2013-06-12 03:09:00,55.2,51.4,29.91,NNE,22,4.6,4.6,87,0.00,CLR,,0.00,0.0,WeatherDisplay:10.37,2013-06-12 01:09:00,
2013-06-12 03:14:00,55.2,51.4,29.91,NE,45,4.6,4.6,87,0.00,CLR,,0.00,0.0,WeatherDisplay:10.37,2013-06-12 01:14:00,
2013-06-12 03:19:00,55.2,51.4,29.88,NNW,338,5.8,5.8,87,0.00,CLR,,0.00,0.0,WeatherDisplay:10.37,2013-06-12 01:19:00,
2013-06-12 03:24:00,55.0,51.2,29.88,NNW,338,3.8,3.8,87,0.00,CLR,,0.00,0.0,WeatherDisplay:10.37,2013-06-12 01:24:00,
2013-06-12 03:29:00,55.0,51.5,29.88,NW,315,4.6,4.6,88,0.00,CLR,,0.00,0.0,WeatherDisplay:10.37,2013-06-12 01:29:00,
2013-06-12 03:34:00,55.0,51.2,29.88,WNW,292,3.5,3.5,87,0.00,CLR,,0.00,0.0,WeatherDisplay:10.37,2013-06-12 01:34:00,
2013-06-12 03:39:00,54.9,51.4,29.88,NNW,338,4.0,4.0,88,0.00,CLR,,0.00,0.0,WeatherDisplay:10.37,2013-06-12 01:39:00,
2013-06-12 03:44:00,54.9,51.4,29.88,WNW,292,2.4,2.4,88,0.00,CLR,,0.00,0.0,WeatherDisplay:10.37,2013-06-12 01:44:00,
2013-06-12 03:49:00,54.7,51.2,29.91,NW,315,3.5,3.5,88,0.00,CLR,,0.00,0.0,WeatherDisplay:10.37,2013-06-12 01:49:00,
2013-06-12 03:54:00,54.7,51.2,29.91,NNW,338,3.5,3.5,88,0.00,CLR,,0.00,0.0,WeatherDisplay:10.37,2013-06-12 01:54:00,
2013-06-12 03:59:00,54.5,51.0,29.91,NNW,338,4.6,4.6,88,0.00,CLR,,0.00,0.0,WeatherDisplay:10.37,2013-06-12 01:59:00,
2013-06-12 04:04:00,54.5,51.0,29.91,NNE,22,3.5,3.5,88,0.00,CLR,,0.00,0.0,WeatherDisplay:10.37,2013-06-12 02:04:00,
2013-06-12 04:09:00,54.3,50.8,29.91,NNW,338,3.8,3.8,88,0.00,CLR,,0.00,0.0,WeatherDisplay:10.37,2013-06-12 02:09:00,
2013-06-12 04:14:00,54.1,51.0,29.91,WNW,292,3.5,3.5,89,0.00,CLR,,0.00,0.0,WeatherDisplay:10.37,2013-06-12 02:14:00,
2013-06-12 04:19:00,54.1,51.0,29.91,NNW,338,4.9,4.9,89,0.00,OVC,,0.00,0.0,WeatherDisplay:10.37,2013-06-12 02:19:00,
2013-06-12 04:24:00,54.1,51.3,29.91,North,0,5.8,5.8,90,0.00,OVC,,0.00,0.0,WeatherDisplay:10.37,2013-06-12 02:24:00,
2013-06-12 04:29:00,54.3,51.4,29.91,NNE,22,5.8,5.8,90,0.00,OVC,,0.00,0.0,WeatherDisplay:10.37,2013-06-12 02:29:00,
2013-06-12 04:34:00,54.5,51.6,29.91,North,0,6.9,6.9,90,0.00,OVC,,0.00,0.0,WeatherDisplay:10.37,2013-06-12 02:34:00,
2013-06-12 04:39:00,54.7,51.8,29.91,NE,45,7.8,7.8,90,0.00,OVC,,0.00,0.0,WeatherDisplay:10.37,2013-06-12 02:39:00,
2013-06-12 04:44:00,54.7,51.5,29.91,NNE,22,4.6,4.6,89,0.00,OVC,,0.00,0.0,WeatherDisplay:10.37,2013-06-12 02:44:00,
2013-06-12 04:49:00,54.9,51.7,29.91,NW,315,4.6,4.6,89,0.00,OVC,,0.00,0.0,WeatherDisplay:10.37,2013-06-12 02:49:00,
2013-06-12 04:54:00,54.9,51.7,29.91,NNW,338,5.8,5.8,89,0.00,OVC,,0.00,0.0,WeatherDisplay:10.37,2013-06-12 02:54:00,
2013-06-12 04:59:00,54.9,51.4,29.91,NNE,22,4.6,4.6,88,0.00,OVC,,0.00,1.8,WeatherDisplay:10.37,2013-06-12 02:59:00,
2013-06-12 05:04:00,54.9,51.4,29.94,NNE,22,4.6,4.6,88,0.00,OVC,,0.00,3.8,WeatherDisplay:10.37,2013-06-12 03:04:00,
2013-06-12 05:09:00,54.7,51.2,29.94,NNW,338,5.8,5.8,88,0.00,OVC,,0.00,5.9,WeatherDisplay:10.37,2013-06-12 03:09:00,
2013-06-12 05:14:00,54.7,51.2,29.94,NNE,22,7.8,7.8,88,0.00,OVC,,0.00,8.1,WeatherDisplay:10.37,2013-06-12 03:14:00,
2013-06-12 05:19:00,54.7,51.2,29.91,NNE,22,7.8,7.8,88,0.00,OVC,,0.00,10.4,WeatherDisplay:10.37,2013-06-12 03:19:00,
2013-06-12 05:24:00,54.9,51.4,29.91,NNW,338,4.6,4.6,88,0.00,OVC,,0.00,12.5,WeatherDisplay:10.37,2013-06-12 03:24:00,
2013-06-12 05:29:00,54.9,51.4,29.91,NNW,338,7.6,7.6,88,0.00,OVC,,0.00,14.8,WeatherDisplay:10.37,2013-06-12 03:29:00,
2013-06-12 05:34:00,54.9,51.4,29.88,NW,315,4.6,4.6,88,0.00,OVC,,0.00,17.2,WeatherDisplay:10.37,2013-06-12 03:34:00,
2013-06-12 05:39:00,55.0,51.5,29.88,NNW,338,4.6,4.6,88,0.00,OVC,,0.00,19.5,WeatherDisplay:10.37,2013-06-12 03:39:00,
2013-06-12 05:44:00,55.2,51.7,29.88,NW,315,5.8,5.8,88,0.00,OVC,,0.00,21.8,WeatherDisplay:10.37,2013-06-12 03:44:00,
2013-06-12 05:49:00,55.4,51.9,29.88,NNW,338,5.8,5.8,88,0.00,OVC,,0.00,24.1,WeatherDisplay:10.37,2013-06-12 03:49:00,
2013-06-12 05:54:00,55.8,51.9,29.88,WNW,292,5.9,5.9,87,0.00,OVC,,0.00,26.6,WeatherDisplay:10.37,2013-06-12 03:54:00,
2013-06-12 05:59:00,55.9,52.1,29.88,WNW,292,5.8,5.8,87,0.00,OVC,,0.00,29.0,WeatherDisplay:10.37,2013-06-12 03:59:00,
2013-06-12 06:01:00,56.1,52.0,29.91,North,0,5.8,5.8,86,0.00,OVC,,0.00,29.5,WeatherDisplay:10.37,2013-06-12 04:01:00,
2013-06-12 06:02:00,56.1,52.0,29.91,NNW,338,8.1,8.1,86,0.00,OVC,,0.00,30.5,WeatherDisplay:10.37,2013-06-12 04:02:00,
2013-06-12 06:07:00,56.3,51.8,29.91,NNW,338,8.1,8.1,85,0.00,OVC,,0.00,33.0,WeatherDisplay:10.37,2013-06-12 04:07:00,
2013-06-12 06:12:00,56.5,52.0,29.91,WNW,292,6.9,6.9,85,0.00,OVC,,0.00,35.5,WeatherDisplay:10.37,2013-06-12 04:12:00,
2013-06-12 06:17:00,56.7,52.2,29.91,WNW,292,5.8,5.8,85,0.00,OVC,,0.00,38.1,WeatherDisplay:10.37,2013-06-12 04:17:00,
2013-06-12 06:22:00,56.8,52.4,29.91,NNW,338,5.8,5.8,85,0.00,OVC,,0.00,40.6,WeatherDisplay:10.37,2013-06-12 04:22:00,
2013-06-12 06:27:00,57.0,52.2,29.91,NNW,338,5.8,5.8,84,0.00,OVC,,0.00,43.2,WeatherDisplay:10.37,2013-06-12 04:27:00,
2013-06-12 06:32:00,57.2,52.1,29.91,NW,315,6.9,6.9,83,0.00,OVC,,0.00,45.9,WeatherDisplay:10.37,2013-06-12 04:32:00,
2013-06-12 06:37:00,57.4,52.3,29.91,NNW,338,10.0,10.0,83,0.00,OVC,,0.00,48.5,WeatherDisplay:10.37,2013-06-12 04:37:00,
2013-06-12 06:42:00,57.4,52.3,29.91,NNW,338,5.4,5.4,83,0.00,OVC,,0.00,51.1,WeatherDisplay:10.37,2013-06-12 04:42:00,
2013-06-12 06:47:00,57.4,52.3,29.88,WNW,292,6.9,6.9,83,0.00,OVC,,0.00,53.8,WeatherDisplay:10.37,2013-06-12 04:47:00,
2013-06-12 06:52:00,57.7,52.6,29.88,NW,315,4.6,4.6,83,0.00,OVC,,0.00,56.4,WeatherDisplay:10.37,2013-06-12 04:52:00,
2013-06-12 06:57:00,58.1,53.0,29.88,North,0,5.8,5.8,83,0.00,OVC,,0.00,59.2,WeatherDisplay:10.37,2013-06-12 04:57:00,
2013-06-12 07:02:00,58.5,53.3,29.91,NNE,22,6.9,6.9,83,0.00,OVC,,0.00,61.9,WeatherDisplay:10.37,2013-06-12 05:02:00,
2013-06-12 07:07:00,58.8,53.3,29.91,NNE,22,9.2,9.2,82,0.00,OVC,,0.00,64.7,WeatherDisplay:10.37,2013-06-12 05:07:00,
2013-06-12 07:12:00,59.2,53.0,29.91,WNW,292,5.8,5.8,80,0.00,OVC,,0.00,67.5,WeatherDisplay:10.37,2013-06-12 05:12:00,
2013-06-12 07:17:00,59.4,53.2,29.94,NNW,338,7.8,7.8,80,0.00,OVC,,0.00,70.1,WeatherDisplay:10.37,2013-06-12 05:17:00,
2013-06-12 07:22:00,59.7,53.5,29.94,WNW,292,5.8,5.8,80,0.00,OVC,,0.00,72.9,WeatherDisplay:10.37,2013-06-12 05:22:00,
2013-06-12 07:27:00,59.9,53.0,29.94,NNW,338,7.4,7.4,78,0.00,OVC,,0.00,75.7,WeatherDisplay:10.37,2013-06-12 05:27:00,
2013-06-12 07:32:00,60.3,53.4,29.97,NNE,22,9.2,9.2,78,0.00,OVC,,0.00,78.5,WeatherDisplay:10.37,2013-06-12 05:32:00,
2013-06-12 07:37:00,60.4,53.5,29.97,NW,315,7.1,7.1,78,0.00,OVC,,0.00,81.3,WeatherDisplay:10.37,2013-06-12 05:37:00,
2013-06-12 07:42:00,60.6,53.4,29.97,NW,315,6.7,6.7,77,0.00,OVC,,0.00,84.2,WeatherDisplay:10.37,2013-06-12 05:42:00,
2013-06-12 07:47:00,61.0,53.4,29.94,NNW,338,6.4,6.4,76,0.00,OVC,,0.00,87.0,WeatherDisplay:10.37,2013-06-12 05:47:00,
2013-06-12 07:52:00,61.0,53.4,29.94,NNW,338,7.8,7.8,76,0.00,OVC,,0.00,89.8,WeatherDisplay:10.37,2013-06-12 05:52:00,
2013-06-12 07:57:00,61.3,53.7,29.94,NNW,338,6.9,6.9,76,0.00,OVC,,0.00,92.6,WeatherDisplay:10.37,2013-06-12 05:57:00,
2013-06-12 08:02:00,61.7,53.0,29.97,NNE,22,8.1,8.1,73,0.00,OVC,,0.00,95.4,WeatherDisplay:10.37,2013-06-12 06:02:00,
2013-06-12 08:07:00,61.9,53.5,29.97,WNW,292,6.9,6.9,74,0.00,OVC,,0.00,98.2,WeatherDisplay:10.37,2013-06-12 06:07:00,
2013-06-12 08:12:00,62.2,54.2,29.97,WNW,292,5.8,5.8,75,0.00,OVC,,0.00,101.0,WeatherDisplay:10.37,2013-06-12 06:12:00,
2013-06-12 08:17:00,62.6,54.9,29.97,NNE,22,3.6,3.6,76,0.00,OVC,,0.00,103.8,WeatherDisplay:10.37,2013-06-12 06:17:00,
2013-06-12 08:22:00,62.8,54.0,29.97,NNW,338,8.1,8.1,73,0.00,OVC,,0.00,106.4,WeatherDisplay:10.37,2013-06-12 06:22:00,
2013-06-12 08:27:00,63.1,54.0,29.97,North,0,8.1,8.1,72,0.00,OVC,,0.00,109.2,WeatherDisplay:10.37,2013-06-12 06:27:00,
2013-06-12 08:32:00,63.1,54.0,29.97,East,90,12.7,12.7,72,0.00,OVC,,0.00,112.0,WeatherDisplay:10.37,2013-06-12 06:32:00,
2013-06-12 08:37:00,63.3,54.5,29.97,NNE,22,7.4,7.4,73,0.00,OVC,,0.00,114.7,WeatherDisplay:10.37,2013-06-12 06:37:00,
2013-06-12 08:42:00,63.1,54.3,29.97,NNW,338,5.8,5.8,73,0.00,OVC,,0.00,117.5,WeatherDisplay:10.37,2013-06-12 06:42:00,
2013-06-12 08:47:00,63.1,54.3,29.94,NW,315,6.9,6.9,73,0.00,OVC,,0.00,120.1,WeatherDisplay:10.37,2013-06-12 06:47:00,
2013-06-12 08:52:00,63.5,54.3,29.94,NNW,338,8.1,8.1,72,0.00,OVC,,0.00,122.9,WeatherDisplay:10.37,2013-06-12 06:52:00,
2013-06-12 08:57:00,63.9,54.3,29.94,North,0,8.1,8.1,71,0.00,OVC,,0.00,125.6,WeatherDisplay:10.37,2013-06-12 06:57:00,
2013-06-12 09:02:00,64.4,54.4,29.97,North,0,9.2,9.2,70,0.00,OVC,,0.00,128.2,WeatherDisplay:10.37,2013-06-12 07:02:00,
2013-06-12 09:07:00,64.6,54.6,29.97,NNE,22,8.1,8.1,70,0.00,OVC,,0.00,130.8,WeatherDisplay:10.37,2013-06-12 07:07:00,
2013-06-12 09:12:00,64.9,54.9,29.97,NNE,22,6.9,6.9,70,0.00,OVC,,0.00,133.3,WeatherDisplay:10.37,2013-06-12 07:12:00,
2013-06-12 09:17:00,65.3,54.5,30.00,NE,45,9.2,9.2,68,0.00,OVC,,0.00,136.0,WeatherDisplay:10.37,2013-06-12 07:17:00,
2013-06-12 09:22:00,65.7,54.8,30.00,NNW,338,9.2,9.2,68,0.00,OVC,,0.00,138.4,WeatherDisplay:10.37,2013-06-12 07:22:00,
2013-06-12 09:27:00,65.8,55.0,30.00,North,0,8.1,8.1,68,0.00,OVC,,0.00,141.1,WeatherDisplay:10.37,2013-06-12 07:27:00,
2013-06-12 09:32:00,66.2,54.9,29.97,NNW,338,9.2,9.2,67,0.00,OVC,,0.00,143.6,WeatherDisplay:10.37,2013-06-12 07:32:00,
2013-06-12 09:37:00,66.6,55.7,29.97,WNW,292,5.8,5.8,68,0.00,OVC,,0.00,145.9,WeatherDisplay:10.37,2013-06-12 07:37:00,
2013-06-12 09:42:00,66.7,55.0,29.97,ENE,68,6.9,6.9,66,0.00,OVC,,0.00,148.3,WeatherDisplay:10.37,2013-06-12 07:42:00,
2013-06-12 09:47:00,66.9,55.2,29.97,NNW,338,8.1,8.1,66,0.00,OVC,,0.00,150.6,WeatherDisplay:10.37,2013-06-12 07:47:00,
2013-06-12 09:52:00,67.1,54.5,29.97,NNW,338,12.7,12.7,64,0.00,OVC,,0.00,153.1,WeatherDisplay:10.37,2013-06-12 07:52:00,
2013-06-12 09:57:00,67.1,54.1,29.97,WNW,292,5.8,5.8,63,0.00,OVC,,0.00,155.3,WeatherDisplay:10.37,2013-06-12 07:57:00,
2013-06-12 10:02:00,67.1,54.9,29.94,NNW,338,5.9,5.9,65,0.00,OVC,,0.00,157.6,WeatherDisplay:10.37,2013-06-12 08:02:00,
2013-06-12 10:07:00,67.1,54.5,29.94,NW,315,8.1,8.1,64,0.00,OVC,,0.00,159.7,WeatherDisplay:10.37,2013-06-12 08:07:00,
2013-06-12 10:12:00,67.3,55.5,29.94,NNW,338,6.9,6.9,66,0.00,OVC,,0.00,162.0,WeatherDisplay:10.37,2013-06-12 08:12:00,
2013-06-12 10:18:00,67.6,55.5,29.97,WNW,292,8.1,8.1,65,0.00,OVC,,0.00,164.0,WeatherDisplay:10.37,2013-06-12 08:18:00,
2013-06-12 10:23:00,67.8,56.5,29.97,NNE,22,10.4,10.4,67,0.00,OVC,,0.00,166.5,WeatherDisplay:10.37,2013-06-12 08:23:00,
2013-06-12 10:28:00,67.8,55.2,29.97,NNW,338,5.8,5.8,64,0.00,OVC,,0.00,168.6,WeatherDisplay:10.37,2013-06-12 08:28:00,
2013-06-12 10:33:00,68.0,55.4,29.97,NNE,22,8.1,8.1,64,0.00,OVC,,0.00,170.4,WeatherDisplay:10.37,2013-06-12 08:33:00,
2013-06-12 10:38:00,68.2,55.1,29.97,NNW,338,10.4,10.4,63,0.00,OVC,,0.00,172.4,WeatherDisplay:10.37,2013-06-12 08:38:00,
2013-06-12 10:43:00,68.4,54.4,29.97,NNE,22,7.6,7.6,61,0.00,OVC,,0.00,174.2,WeatherDisplay:10.37,2013-06-12 08:43:00,
2013-06-12 10:48:00,68.5,53.6,29.94,NNW,338,6.9,6.9,59,0.00,OVC,,0.00,176.1,WeatherDisplay:10.37,2013-06-12 08:48:00,
2013-06-12 10:53:00,68.7,55.6,29.94,NNW,338,10.4,10.4,63,0.00,OVC,,0.00,177.9,WeatherDisplay:10.37,2013-06-12 08:53:00,
2013-06-12 10:58:00,69.1,56.0,29.94,NNW,338,8.1,8.1,63,0.00,OVC,,0.00,179.5,WeatherDisplay:10.37,2013-06-12 08:58:00,
2013-06-12 11:03:00,69.3,55.7,29.97,NNE,22,6.9,6.9,62,0.00,OVC,,0.00,181.2,WeatherDisplay:10.37,2013-06-12 09:03:00,
2013-06-12 11:08:00,69.8,55.7,29.97,West,270,10.4,10.4,61,0.00,OVC,,0.00,182.7,WeatherDisplay:10.37,2013-06-12 09:08:00,
2013-06-12 11:13:00,69.8,54.8,29.97,ENE,68,9.2,9.2,59,0.00,OVC,,0.00,184.1,WeatherDisplay:10.37,2013-06-12 09:13:00,
2013-06-12 11:18:00,69.8,54.8,29.97,NNW,338,6.0,6.0,59,0.00,OVC,,0.00,185.6,WeatherDisplay:10.37,2013-06-12 09:18:00,
2013-06-12 11:23:00,70.0,53.6,29.97,WNW,292,8.5,8.5,56,0.00,OVC,,0.00,186.9,WeatherDisplay:10.37,2013-06-12 09:23:00,
2013-06-12 11:28:00,70.0,55.0,29.97,NNW,338,7.4,7.4,59,0.00,OVC,,0.00,188.3,WeatherDisplay:10.37,2013-06-12 09:28:00,
2013-06-12 11:33:00,70.2,55.2,30.00,NNE,22,9.2,9.2,59,0.00,OVC,,0.00,189.6,WeatherDisplay:10.37,2013-06-12 09:33:00,
2013-06-12 11:38:00,70.2,55.6,30.00,NE,45,10.4,10.4,60,0.00,OVC,,0.00,190.7,WeatherDisplay:10.37,2013-06-12 09:38:00,
2013-06-12 11:43:00,70.3,54.9,30.00,NNW,338,6.9,6.9,58,0.00,OVC,,0.00,191.9,WeatherDisplay:10.37,2013-06-12 09:43:00,
2013-06-12 11:48:00,70.5,55.5,29.97,NW,315,12.7,12.7,59,0.00,OVC,,0.00,192.9,WeatherDisplay:10.37,2013-06-12 09:48:00,
2013-06-12 11:53:00,70.5,54.5,29.97,NNW,338,5.8,5.8,57,0.00,OVC,,0.00,193.9,WeatherDisplay:10.37,2013-06-12 09:53:00,
2013-06-12 11:58:00,70.9,54.9,29.97,WNW,292,6.4,6.4,57,0.00,OVC,,0.00,194.7,WeatherDisplay:10.37,2013-06-12 09:58:00,
2013-06-12 12:03:00,70.9,55.4,29.94,NNE,22,6.9,6.9,58,0.00,OVC,,0.00,195.5,WeatherDisplay:10.37,2013-06-12 10:03:00,
2013-06-12 12:08:00,70.9,55.8,29.94,NNW,338,9.2,9.2,59,0.00,OVC,,0.00,196.3,WeatherDisplay:10.37,2013-06-12 10:08:00,
2013-06-12 12:13:00,70.9,54.9,29.94,North,0,8.1,8.1,57,0.00,OVC,,0.00,197.0,WeatherDisplay:10.37,2013-06-12 10:13:00,
2013-06-12 12:18:00,71.1,56.0,29.97,ENE,68,7.8,7.8,59,0.00,OVC,,0.00,197.7,WeatherDisplay:10.37,2013-06-12 10:18:00,
2013-06-12 12:23:00,71.2,56.2,29.97,NNW,338,6.9,6.9,59,0.00,OVC,,0.00,198.3,WeatherDisplay:10.37,2013-06-12 10:23:00,
2013-06-12 12:28:00,71.4,56.3,29.97,NNE,22,8.1,8.1,59,0.00,OVC,,0.00,198.8,WeatherDisplay:10.37,2013-06-12 10:28:00,
2013-06-12 12:33:00,71.1,53.6,29.97,NNE,22,6.4,6.4,54,0.00,OVC,,0.00,199.2,WeatherDisplay:10.37,2013-06-12 10:33:00,
2013-06-12 12:38:00,70.9,55.4,29.97,North,0,4.6,4.6,58,0.00,OVC,,0.00,199.5,WeatherDisplay:10.37,2013-06-12 10:38:00,
2013-06-12 12:43:00,71.2,55.2,29.97,NNE,22,5.8,5.8,57,0.00,OVC,,0.00,199.8,WeatherDisplay:10.37,2013-06-12 10:43:00,
2013-06-12 12:48:00,71.8,56.2,30.00,NNW,338,8.1,8.1,58,0.00,OVC,,0.00,200.0,WeatherDisplay:10.37,2013-06-12 10:48:00,
2013-06-12 12:53:00,72.0,56.4,30.00,NNW,338,10.4,10.4,58,0.00,OVC,,0.00,200.1,WeatherDisplay:10.37,2013-06-12 10:53:00,
2013-06-12 12:58:00,71.6,52.5,30.00,WNW,292,12.5,12.5,51,0.00,OVC,,0.00,200.1,WeatherDisplay:10.37,2013-06-12 10:58:00,
2013-06-12 13:03:00,71.6,55.6,30.00,NNW,338,8.1,8.1,57,0.00,OVC,,0.00,200.1,WeatherDisplay:10.37,2013-06-12 11:03:00,
2013-06-12 13:08:00,72.0,55.9,30.00,NNE,22,5.6,5.6,57,0.00,OVC,,0.00,200.0,WeatherDisplay:10.37,2013-06-12 11:08:00,
2013-06-12 13:13:00,72.1,55.6,30.00,NW,315,8.1,8.1,56,0.00,OVC,,0.00,199.8,WeatherDisplay:10.37,2013-06-12 11:13:00,
2013-06-12 13:18:00,72.0,55.4,29.94,ENE,68,10.4,10.4,56,0.00,OVC,,0.00,199.7,WeatherDisplay:10.37,2013-06-12 11:18:00,
2013-06-12 13:23:00,72.0,53.4,29.94,North,0,8.1,8.1,52,0.00,OVC,,0.00,199.3,WeatherDisplay:10.37,2013-06-12 11:23:00,
2013-06-12 13:28:00,72.5,53.3,29.94,WNW,292,5.8,5.8,51,0.00,OVC,,0.00,199.0,WeatherDisplay:10.37,2013-06-12 11:28:00,
2013-06-12 13:33:00,73.0,55.9,29.97,NNE,22,4.6,4.6,55,0.00,OVC,,0.00,198.5,WeatherDisplay:10.37,2013-06-12 11:33:00,
2013-06-12 13:38:00,73.4,54.7,29.97,NNW,338,4.9,4.9,52,0.00,OVC,,0.00,198.0,WeatherDisplay:10.37,2013-06-12 11:38:00,
2013-06-12 13:43:00,72.9,54.7,29.97,NW,315,6.9,6.9,53,0.00,OVC,,0.00,197.3,WeatherDisplay:10.37,2013-06-12 11:43:00,
2013-06-12 13:48:00,72.9,55.2,29.97,NNE,22,6.9,6.9,54,0.00,OVC,,0.00,196.7,WeatherDisplay:10.37,2013-06-12 11:48:00,
2013-06-12 13:53:00,73.4,52.5,29.97,NNW,338,9.2,9.2,48,0.00,OVC,,0.00,195.9,WeatherDisplay:10.37,2013-06-12 11:53:00,
2013-06-12 13:58:00,73.9,54.7,29.97,NNW,338,9.7,9.7,51,0.00,OVC,,0.00,195.2,WeatherDisplay:10.37,2013-06-12 11:58:00,
2013-06-12 14:03:00,73.8,54.0,29.97,WNW,292,8.1,8.1,50,0.00,OVC,,0.00,194.2,WeatherDisplay:10.37,2013-06-12 12:03:00,
2013-06-12 14:08:00,73.6,54.3,29.97,NE,45,6.9,6.9,51,0.00,OVC,,0.00,193.2,WeatherDisplay:10.37,2013-06-12 12:08:00,
2013-06-12 14:13:00,74.1,54.3,29.97,NNW,338,6.9,6.9,50,0.00,OVC,,0.00,192.2,WeatherDisplay:10.37,2013-06-12 12:13:00,
2013-06-12 14:18:00,74.7,56.9,29.97,NNE,22,6.9,6.9,54,0.00,OVC,,0.00,191.2,WeatherDisplay:10.37,2013-06-12 12:18:00,
2013-06-12 14:23:00,74.5,56.2,29.97,NNW,338,5.8,5.8,53,0.00,OVC,,0.00,190.1,WeatherDisplay:10.37,2013-06-12 12:23:00,
2013-06-12 14:28:00,74.5,55.7,29.97,NNE,22,8.1,8.1,52,0.00,OVC,,0.00,188.8,WeatherDisplay:10.37,2013-06-12 12:28:00,
2013-06-12 14:33:00,74.7,56.4,29.97,NNW,338,9.8,9.8,53,0.00,OVC,,0.00,187.6,WeatherDisplay:10.37,2013-06-12 12:33:00,
2013-06-12 14:38:00,75.2,56.4,29.97,NNW,338,5.8,5.8,52,0.00,OVC,,0.00,186.1,WeatherDisplay:10.37,2013-06-12 12:38:00,
2013-06-12 14:43:00,75.4,56.5,29.97,North,0,9.2,9.2,52,0.00,OVC,,0.00,184.8,WeatherDisplay:10.37,2013-06-12 12:43:00,
2013-06-12 14:48:00,74.8,56.0,29.97,ENE,68,6.9,6.9,52,0.00,OVC,,0.00,183.3,WeatherDisplay:10.37,2013-06-12 12:48:00,
2013-06-12 14:53:00,74.1,54.8,29.97,WNW,292,4.6,4.6,51,0.00,OVC,,0.00,181.7,WeatherDisplay:10.37,2013-06-12 12:53:00,
2013-06-12 14:58:00,74.1,55.9,29.97,NNE,22,4.6,4.6,53,0.00,OVC,,0.00,180.2,WeatherDisplay:10.37,2013-06-12 12:58:00,
2013-06-12 15:03:00,73.8,55.6,29.94,NNW,338,3.5,3.5,53,0.00,OVC,,0.00,178.5,WeatherDisplay:10.37,2013-06-12 13:03:00,
2013-06-12 15:08:00,73.4,54.7,29.94,NNE,22,5.8,5.8,52,0.00,OVC,,0.00,176.7,WeatherDisplay:10.37,2013-06-12 13:08:00,
2013-06-12 15:13:00,73.2,56.1,29.94,NW,315,5.8,5.8,55,0.00,OVC,,0.00,175.1,WeatherDisplay:10.37,2013-06-12 13:13:00,
2013-06-12 15:18:00,73.2,54.5,29.94,NNE,22,11.5,11.5,52,0.00,OVC,,0.00,173.3,WeatherDisplay:10.37,2013-06-12 13:18:00,
2013-06-12 15:23:00,74.1,55.9,29.94,NW,315,7.8,7.8,53,0.00,OVC,,0.00,171.3,WeatherDisplay:10.37,2013-06-12 13:23:00,
2013-06-12 15:28:00,75.0,56.7,29.94,NNE,22,6.4,6.4,53,0.00,OVC,,0.00,169.3,WeatherDisplay:10.37,2013-06-12 13:28:00,
2013-06-12 15:33:00,74.8,54.9,29.94,NNW,338,4.5,4.5,50,0.00,OVC,,0.00,167.3,WeatherDisplay:10.37,2013-06-12 13:33:00,
2013-06-12 15:38:00,74.5,55.2,29.94,NNE,22,5.8,5.8,51,0.00,OVC,,0.00,165.3,WeatherDisplay:10.37,2013-06-12 13:38:00,
2013-06-12 15:43:00,73.6,53.8,29.94,WNW,292,6.0,6.0,50,0.00,OVC,,0.00,163.2,WeatherDisplay:10.37,2013-06-12 13:43:00,
2013-06-12 15:48:00,72.7,53.5,30.00,West,270,5.8,5.8,51,0.00,OVC,,0.00,161.2,WeatherDisplay:10.37,2013-06-12 13:48:00,
2013-06-12 15:53:00,72.3,54.2,30.00,NNW,338,5.9,5.9,53,0.00,OVC,,0.00,158.9,WeatherDisplay:10.37,2013-06-12 13:53:00,
2013-06-12 15:58:00,72.5,54.9,30.00,NNW,338,8.1,8.1,54,0.00,OVC,,0.00,156.8,WeatherDisplay:10.37,2013-06-12 13:58:00,
2013-06-12 16:03:00,72.7,55.6,29.94,NNE,22,4.0,4.0,55,0.00,OVC,,0.00,154.4,WeatherDisplay:10.37,2013-06-12 14:03:00,
2013-06-12 16:08:00,73.4,55.2,29.94,WNW,292,8.5,8.5,53,0.00,OVC,,0.00,152.1,WeatherDisplay:10.37,2013-06-12 14:08:00,
2013-06-12 16:13:00,74.3,57.1,29.94,NNW,338,8.1,8.1,55,0.00,OVC,,0.00,149.8,WeatherDisplay:10.37,2013-06-12 14:13:00,
2013-06-12 16:18:00,74.3,55.0,29.94,WNW,292,8.1,8.1,51,0.00,OVC,,0.00,147.3,WeatherDisplay:10.37,2013-06-12 14:18:00,
2013-06-12 16:23:00,74.3,55.0,29.94,NNE,22,10.4,10.4,51,0.00,OVC,,0.00,145.0,WeatherDisplay:10.37,2013-06-12 14:23:00,
2013-06-12 16:28:00,74.7,54.8,29.94,WNW,292,11.5,11.5,50,0.00,OVC,,0.00,142.6,WeatherDisplay:10.37,2013-06-12 14:28:00,
2013-06-12 16:33:00,75.0,56.2,30.00,West,270,6.9,6.9,52,0.00,OVC,,0.00,140.1,WeatherDisplay:10.37,2013-06-12 14:33:00,
2013-06-12 16:38:00,75.0,55.1,30.00,NNE,22,10.4,10.4,50,0.00,OVC,,0.00,137.6,WeatherDisplay:10.37,2013-06-12 14:38:00,
2013-06-12 16:43:00,74.7,54.2,30.00,WNW,292,10.4,10.4,49,0.00,OVC,,0.00,135.0,WeatherDisplay:10.37,2013-06-12 14:43:00,
2013-06-12 16:48:00,74.8,57.1,29.94,West,270,9.7,9.7,54,0.00,OVC,,0.00,132.3,WeatherDisplay:10.37,2013-06-12 14:48:00,
2013-06-12 16:53:00,74.7,56.4,29.94,NNW,338,9.7,9.7,53,0.00,OVC,,0.00,129.9,WeatherDisplay:10.37,2013-06-12 14:53:00,
2013-06-12 16:58:00,74.5,57.3,29.94,WNW,292,6.9,6.9,55,0.00,OVC,,0.00,127.2,WeatherDisplay:10.37,2013-06-12 14:58:00,
2013-06-12 17:03:00,74.3,56.6,29.97,NNW,338,13.8,13.8,54,0.00,OVC,,0.00,124.6,WeatherDisplay:10.37,2013-06-12 15:03:00,
2013-06-12 17:08:00,74.3,56.6,29.97,North,0,9.2,9.2,54,0.00,OVC,,0.00,121.8,WeatherDisplay:10.37,2013-06-12 15:08:00,
2013-06-12 17:13:00,73.6,54.9,29.97,North,0,9.2,9.2,52,0.00,OVC,,0.00,119.1,WeatherDisplay:10.37,2013-06-12 15:13:00,
2013-06-12 17:18:00,72.9,54.7,29.94,NNE,22,6.9,6.9,53,0.00,OVC,,0.00,116.5,WeatherDisplay:10.37,2013-06-12 15:18:00,
2013-06-12 17:23:00,72.1,55.6,29.94,NNW,338,5.8,5.8,56,0.00,OVC,,0.00,113.7,WeatherDisplay:10.37,2013-06-12 15:23:00,
2013-06-12 17:28:00,72.0,55.4,29.94,West,270,9.2,9.2,56,0.00,OVC,,0.00,111.0,WeatherDisplay:10.37,2013-06-12 15:28:00,
2013-06-12 17:33:00,72.0,54.9,29.97,North,0,8.7,8.7,55,0.00,OVC,,0.00,108.2,WeatherDisplay:10.37,2013-06-12 15:33:00,
2013-06-12 17:38:00,71.4,55.4,29.97,NNE,22,8.1,8.1,57,0.00,OVC,,0.00,105.4,WeatherDisplay:10.37,2013-06-12 15:38:00,
2013-06-12 17:43:00,70.9,55.4,29.97,WSW,248,5.8,5.8,58,0.00,OVC,,0.00,102.6,WeatherDisplay:10.37,2013-06-12 15:43:00,
2013-06-12 17:48:00,70.3,55.3,29.97,NNE,22,4.6,4.6,59,0.00,OVC,,0.00,99.8,WeatherDisplay:10.37,2013-06-12 15:48:00,
2013-06-12 17:53:00,70.2,55.6,29.97,WSW,248,3.5,3.6,60,0.00,OVC,,0.00,97.0,WeatherDisplay:10.37,2013-06-12 15:53:00,
2013-06-12 17:58:00,70.0,55.9,29.97,WNW,292,3.8,3.8,61,0.00,OVC,,0.00,94.2,WeatherDisplay:10.37,2013-06-12 15:58:00,
2013-06-12 18:03:00,69.8,55.7,30.00,NNW,338,5.8,5.8,61,0.00,OVC,,0.00,91.6,WeatherDisplay:10.37,2013-06-12 16:03:00,
2013-06-12 18:08:00,70.0,55.5,30.00,WNW,292,5.8,5.8,60,0.00,OVC,,0.00,88.8,WeatherDisplay:10.37,2013-06-12 16:08:00,
2013-06-12 18:13:00,70.0,55.5,30.00,NNE,22,6.9,6.9,60,0.00,OVC,,0.00,86.0,WeatherDisplay:10.37,2013-06-12 16:13:00,
2013-06-12 18:18:00,70.0,55.0,29.94,NNW,338,5.8,5.8,59,0.00,OVC,,0.00,83.2,WeatherDisplay:10.37,2013-06-12 16:18:00,
2013-06-12 18:23:00,70.0,55.5,29.94,NNE,22,4.6,4.6,60,0.00,OVC,,0.00,80.4,WeatherDisplay:10.37,2013-06-12 16:23:00,
2013-06-12 18:28:00,70.3,54.9,29.94,NW,315,6.9,6.9,58,0.00,OVC,,0.00,77.5,WeatherDisplay:10.37,2013-06-12 16:28:00,
2013-06-12 18:33:00,70.5,55.0,29.97,NNE,22,10.5,10.5,58,0.00,OVC,,0.00,74.7,WeatherDisplay:10.37,2013-06-12 16:33:00,
2013-06-12 18:38:00,70.7,55.2,29.97,NNE,22,10.4,10.4,58,0.00,OVC,,0.00,71.9,WeatherDisplay:10.37,2013-06-12 16:38:00,
2013-06-12 18:43:00,70.7,55.7,29.97,ENE,68,5.8,5.8,59,0.00,OVC,,0.00,69.1,WeatherDisplay:10.37,2013-06-12 16:43:00,
2013-06-12 18:48:00,70.7,54.7,30.00,NNE,22,11.5,11.5,57,0.00,OVC,,0.00,66.3,WeatherDisplay:10.37,2013-06-12 16:48:00,
2013-06-12 18:54:00,70.5,54.1,30.00,ENE,68,6.4,6.4,56,0.00,OVC,,0.00,63.7,WeatherDisplay:10.37,2013-06-12 16:54:00,
2013-06-12 18:59:00,70.2,53.7,30.00,NNE,22,5.8,5.8,56,0.00,OVC,,0.00,60.4,WeatherDisplay:10.37,2013-06-12 16:59:00,
2013-06-12 19:04:00,69.8,53.4,30.00,NNE,22,8.1,8.1,56,0.00,OVC,,0.00,57.8,WeatherDisplay:10.37,2013-06-12 17:04:00,
2013-06-12 19:09:00,69.4,53.5,30.00,NNE,22,8.1,8.1,57,0.00,OVC,,0.00,54.9,WeatherDisplay:10.37,2013-06-12 17:09:00,
2013-06-12 19:14:00,69.3,53.4,30.00,WNW,292,10.5,10.5,57,0.00,OVC,,0.00,52.3,WeatherDisplay:10.37,2013-06-12 17:14:00,
2013-06-12 19:19:00,69.1,53.2,30.00,ENE,68,5.8,5.8,57,0.00,OVC,,0.00,49.7,WeatherDisplay:10.37,2013-06-12 17:19:00,
2013-06-12 19:24:00,68.9,53.0,30.00,NNE,22,5.8,5.8,57,0.00,OVC,,0.00,47.0,WeatherDisplay:10.37,2013-06-12 17:24:00,
2013-06-12 19:29:00,68.9,53.0,30.00,NNE,22,6.4,6.4,57,0.00,OVC,,0.00,44.4,WeatherDisplay:10.37,2013-06-12 17:29:00,
2013-06-12 19:34:00,68.9,52.6,30.00,North,0,4.6,4.6,56,0.00,OVC,,0.00,41.7,WeatherDisplay:10.37,2013-06-12 17:34:00,
2013-06-12 19:39:00,68.7,53.3,30.00,NNE,22,3.5,3.5,58,0.00,OVC,,0.00,39.1,WeatherDisplay:10.37,2013-06-12 17:39:00,
2013-06-12 19:44:00,68.5,53.6,30.00,NNE,22,6.9,6.9,59,0.00,OVC,,0.00,36.6,WeatherDisplay:10.37,2013-06-12 17:44:00,
2013-06-12 19:49:00,68.4,53.5,30.03,NNE,22,3.8,3.8,59,0.00,OVC,,0.00,34.2,WeatherDisplay:10.37,2013-06-12 17:49:00,
2013-06-12 19:54:00,68.0,53.6,30.03,NNE,22,5.8,5.8,60,0.00,OVC,,0.00,31.5,WeatherDisplay:10.37,2013-06-12 17:54:00,
2013-06-12 19:59:00,67.8,53.9,30.03,NE,45,3.5,3.5,61,0.00,OVC,,0.00,29.0,WeatherDisplay:10.37,2013-06-12 17:59:00,
2013-06-12 20:04:00,67.5,53.5,30.03,ENE,68,3.5,3.5,61,0.00,OVC,,0.00,26.7,WeatherDisplay:10.37,2013-06-12 18:04:00,
2013-06-12 20:09:00,67.3,53.4,30.03,NNW,338,5.8,5.8,61,0.00,OVC,,0.00,24.3,WeatherDisplay:10.37,2013-06-12 18:09:00,
2013-06-12 20:14:00,67.1,53.2,30.03,ENE,68,5.8,5.8,61,0.00,OVC,,0.00,21.9,WeatherDisplay:10.37,2013-06-12 18:14:00,
2013-06-12 20:19:00,66.7,52.9,30.03,NNE,22,5.8,5.8,61,0.00,OVC,,0.00,19.5,WeatherDisplay:10.37,2013-06-12 18:19:00,
2013-06-12 20:24:00,66.6,53.1,30.03,NNW,338,4.6,4.6,62,0.00,OVC,,0.00,17.2,WeatherDisplay:10.37,2013-06-12 18:24:00,
2013-06-12 20:29:00,66.4,53.0,30.03,NNE,22,4.6,4.6,62,0.00,OVC,,0.00,14.8,WeatherDisplay:10.37,2013-06-12 18:29:00,
2013-06-12 20:34:00,66.0,53.1,30.06,North,0,5.8,5.8,63,0.00,OVC,,0.00,12.7,WeatherDisplay:10.37,2013-06-12 18:34:00,
2013-06-12 20:39:00,65.8,52.9,30.06,NNE,22,3.3,3.3,63,0.00,OVC,,0.00,10.4,WeatherDisplay:10.37,2013-06-12 18:39:00,
2013-06-12 20:44:00,65.5,52.5,30.06,North,0,4.6,4.6,63,0.00,OVC,,0.00,8.3,WeatherDisplay:10.37,2013-06-12 18:44:00,
2013-06-12 20:49:00,65.1,52.6,30.00,NNW,338,5.8,5.8,64,0.00,OVC,,0.00,6.1,WeatherDisplay:10.37,2013-06-12 18:49:00,
2013-06-12 20:54:00,64.9,52.5,30.00,NNE,22,5.8,5.8,64,0.00,OVC,,0.00,4.0,WeatherDisplay:10.37,2013-06-12 18:54:00,
2013-06-12 20:59:00,64.6,52.5,30.00,NW,315,4.6,4.6,65,0.00,OVC,,0.00,1.8,WeatherDisplay:10.37,2013-06-12 18:59:00,
2013-06-12 21:04:00,64.4,52.4,30.03,North,0,3.5,3.5,65,0.00,CLR,,0.00,0.0,WeatherDisplay:10.37,2013-06-12 19:04:00,
2013-06-12 21:09:00,64.0,52.4,30.03,ENE,68,4.6,4.6,66,0.00,CLR,,0.00,0.0,WeatherDisplay:10.37,2013-06-12 19:09:00,
2013-06-12 21:14:00,63.9,52.7,30.03,NNE,22,4.6,4.6,67,0.00,CLR,,0.00,0.0,WeatherDisplay:10.37,2013-06-12 19:14:00,
2013-06-12 21:19:00,63.7,52.5,30.03,ENE,68,3.5,3.5,67,0.00,CLR,,0.00,0.0,WeatherDisplay:10.37,2013-06-12 19:19:00,
2013-06-12 21:24:00,63.5,52.3,30.03,NW,315,3.5,3.5,67,0.00,CLR,,0.00,0.0,WeatherDisplay:10.37,2013-06-12 19:24:00,
2013-06-12 21:29:00,63.3,52.2,30.03,North,0,3.5,3.5,67,0.00,CLR,,0.00,0.0,WeatherDisplay:10.37,2013-06-12 19:29:00,
2013-06-12 21:34:00,63.1,52.0,30.03,NNE,22,4.6,4.6,67,0.00,CLR,,0.00,0.0,WeatherDisplay:10.37,2013-06-12 19:34:00,
2013-06-12 21:39:00,63.1,52.4,30.03,ENE,68,5.8,5.8,68,0.00,CLR,,0.00,0.0,WeatherDisplay:10.37,2013-06-12 19:39:00,
2013-06-12 21:44:00,63.1,52.0,30.03,ENE,68,5.8,5.8,67,0.00,CLR,,0.00,0.0,WeatherDisplay:10.37,2013-06-12 19:44:00,
2013-06-12 21:49:00,63.0,52.2,30.06,ENE,68,5.8,5.8,68,0.00,CLR,,0.00,0.0,WeatherDisplay:10.37,2013-06-12 19:49:00,
2013-06-12 21:54:00,63.0,52.2,30.06,NNW,338,4.0,4.0,68,0.00,CLR,,0.00,0.0,WeatherDisplay:10.37,2013-06-12 19:54:00,
2013-06-12 21:59:00,62.8,52.1,30.06,NNW,338,3.5,3.5,68,0.00,CLR,,0.00,0.0,WeatherDisplay:10.37,2013-06-12 19:59:00,
2013-06-12 22:04:00,62.8,52.1,30.06,NNW,338,4.6,4.6,68,0.00,CLR,,0.00,0.0,WeatherDisplay:10.37,2013-06-12 20:04:00,
2013-06-12 22:09:00,62.6,51.5,30.06,NNW,338,5.8,5.8,67,0.00,CLR,,0.00,0.0,WeatherDisplay:10.37,2013-06-12 20:09:00,
2013-06-12 22:14:00,62.6,51.9,30.06,NE,45,4.6,4.6,68,0.00,CLR,,0.00,0.0,WeatherDisplay:10.37,2013-06-12 20:14:00,
2013-06-12 22:19:00,62.6,51.9,30.03,NNW,338,4.6,4.6,68,0.00,CLR,,0.00,0.0,WeatherDisplay:10.37,2013-06-12 20:19:00,
2013-06-12 22:24:00,62.4,51.7,30.03,NNW,338,4.6,4.6,68,0.00,CLR,,0.00,0.0,WeatherDisplay:10.37,2013-06-12 20:24:00,
2013-06-12 22:29:00,62.2,51.5,30.03,NE,45,4.0,4.0,68,0.00,CLR,,0.00,0.0,WeatherDisplay:10.37,2013-06-12 20:29:00,
2013-06-12 22:34:00,62.2,51.5,30.06,NNE,22,4.9,4.9,68,0.00,CLR,,0.00,0.0,WeatherDisplay:10.37,2013-06-12 20:34:00,
2013-06-12 22:39:00,62.1,51.4,30.06,North,0,6.0,6.0,68,0.00,CLR,,0.00,0.0,WeatherDisplay:10.37,2013-06-12 20:39:00,
2013-06-12 22:44:00,62.1,51.4,30.06,WNW,292,5.8,5.8,68,0.00,CLR,,0.00,0.0,WeatherDisplay:10.37,2013-06-12 20:44:00,
2013-06-12 22:49:00,61.9,51.2,30.09,NNE,22,5.8,5.8,68,0.00,CLR,,0.00,0.0,WeatherDisplay:10.37,2013-06-12 20:49:00,
2013-06-12 22:54:00,61.9,51.2,30.09,NNW,338,5.8,5.8,68,0.00,CLR,,0.00,0.0,WeatherDisplay:10.37,2013-06-12 20:54:00,
2013-06-12 22:59:00,61.9,51.2,30.09,ENE,68,5.9,5.9,68,0.00,CLR,,0.00,0.0,WeatherDisplay:10.37,2013-06-12 20:59:00,
2013-06-12 23:04:00,61.9,51.2,30.09,NNE,22,4.6,4.6,68,0.00,CLR,,0.00,0.0,WeatherDisplay:10.37,2013-06-12 21:04:00,
2013-06-12 23:09:00,61.9,51.2,30.09,NNW,338,4.6,4.6,68,0.00,CLR,,0.00,0.0,WeatherDisplay:10.37,2013-06-12 21:09:00,
2013-06-12 23:14:00,61.9,51.2,30.09,North,0,4.6,4.6,68,0.00,CLR,,0.00,0.0,WeatherDisplay:10.37,2013-06-12 21:14:00,
2013-06-12 23:19:00,61.7,51.0,30.09,NNW,338,5.8,5.8,68,0.00,CLR,,0.00,0.0,WeatherDisplay:10.37,2013-06-12 21:19:00,
2013-06-12 23:24:00,61.5,50.9,30.09,NNW,338,4.6,4.6,68,0.00,CLR,,0.00,0.0,WeatherDisplay:10.37,2013-06-12 21:24:00,
2013-06-12 23:29:00,61.3,50.7,30.09,NNE,22,4.6,4.6,68,0.00,CLR,,0.00,0.0,WeatherDisplay:10.37,2013-06-12 21:29:00,
2013-06-12 23:34:00,61.2,50.9,30.12,NNW,338,2.3,2.6,69,0.00,CLR,,0.00,0.0,WeatherDisplay:10.37,2013-06-12 21:34:00,
2013-06-12 23:39:00,61.2,50.9,30.12,NNW,338,4.6,4.6,69,0.00,CLR,,0.00,0.0,WeatherDisplay:10.37,2013-06-12 21:39:00,
2013-06-12 23:44:00,61.0,50.7,30.12,NNW,338,4.6,4.6,69,0.00,CLR,,0.00,0.0,WeatherDisplay:10.37,2013-06-12 21:44:00,
2013-06-12 23:49:00,60.8,50.6,30.12,North,0,2.6,2.6,69,0.00,CLR,,0.00,0.0,WeatherDisplay:10.37,2013-06-12 21:49:00,
2013-06-12 23:54:00,60.8,50.6,30.12,North,0,4.6,4.6,69,0.00,CLR,,0.00,0.0,WeatherDisplay:10.37,2013-06-12 21:54:00,
2013-06-12 23:59:00,60.8,50.6,30.12,NNW,338,2.3,2.3,69,0.00,CLR,,0.00,0.0,WeatherDisplay:10.37,2013-06-12 21:59:00,